Yarras Mount Seaview, New South Wales

7:47 AM AEDT on October 26, 2014 (GMT +1100)
Taree | Change Station
CLOSE
Current Station
Airport
Location: Taree,
Elevation: 39 ft
Nearby Weather Stations

Elev 39 ft 31.89 °S, 152.51 °E | Updated 47 minutes ago

Thunderstorm
Thunderstorm
66 °F
Feels Like 66 °F
N
6
Wind Variable Wind from NW
Gusts mph

Today
High -- | Low -- °F
--% Chance of Precip.
Yesterday
High -- | Low -- °F
Precip. -- in
6:00 AM 7:09 PM
Waxing Crescent, 4% visible
Pressure 29.92 in
Visibility -9999.0 miles
Clouds
Dew Point 64 °F
Humidity 94%
Rainfall 0.00 in
Snow Depth Not available.
UV Not available.
Pollen Not available.
Air Quality Not available.
Flu Activity Not available.
METAR YTRE 252000Z AUTO 32005KT //// // ////// 19/18 Q1013

More Conditions Fewer Conditions

Pressure 29.92 in
Visibility -9999.0 miles
Clouds
Dew Point 64 °F
Humidity 94%
Rainfall 0.00 in
Snow Depth Not available.
UV Not available.
Pollen Not available.
Air Quality Not available.
Flu Activity Not available.
METAR YTRE 252000Z AUTO 32005KT //// // ////// 19/18 Q1013

More Conditions Fewer Conditions

10-Day Weather Forecast

Almanac

Astronomy

Oct. 26, 2014 Rise Set
Actual Time 6:00 AM AEDT 7:09 PM AEDT
Civil Twilight 5:35 AM AEDT 7:35 PM AEDT
Nautical Twilight 5:05 AM AEDT 8:05 PM AEDT
Astronomical Twilight 4:34 AM AEDT 8:36 PM AEDT
Moon 7:30 AM AEDT (10/26) 9:22 PM AEDT (10/26)
Length of Visible Light 14h 00m
Length of Day
13h 09m
Tomorrow will be 1m 47s longer.
Waxing Crescent, 4% of the Moon is Illuminated
Oct 25
Waxing Crescent
Oct 30
First Quarter
Nov 6
Full
Nov 14
Last Quarter
Nov 22
New

Yesterday's Extremes

Country Highs Country Lows

Community

WunderPhotos

Upload Photos

1,764,989 photos uploaded!

Nearby

Snow Depth

Not available.

Earthquake Activity

City Distance Mag. Time & Date
No recent earthquake activity has been reported nearby.
Minimum magnitude displayed is 2.5.

Coastal Water Temperatures

Place Temperature
No Stations Reporting

Nearby Weather Stations